createdAt,value
2018-03-21T00:00:43.521Z,0.82
2018-03-21T00:03:10.965Z,0.30
2018-03-21T00:05:38.428Z,0.37
2018-03-21T00:08:05.884Z,0.03
2018-03-21T00:10:33.445Z,0.43
2018-03-21T00:13:00.902Z,0.01
2018-03-21T00:15:28.381Z,-0.17
2018-03-21T00:17:55.837Z,-0.05
2018-03-21T00:20:23.336Z,0.65
2018-03-21T00:22:50.786Z,0.28
2018-03-21T00:25:18.266Z,-0.04
2018-03-21T00:27:45.722Z,-0.21
2018-03-21T00:30:13.206Z,-0.30
2018-03-21T00:32:40.670Z,-0.32
2018-03-21T00:35:08.153Z,-0.36
2018-03-21T00:37:35.606Z,-0.45
2018-03-21T00:40:03.090Z,-0.47
2018-03-21T00:42:30.550Z,-0.37
2018-03-21T00:44:58.018Z,-0.40
2018-03-21T00:47:25.473Z,-0.27
2018-03-21T00:49:52.946Z,-0.05
2018-03-21T00:52:20.412Z,-0.14
2018-03-21T00:54:47.881Z,-0.25
2018-03-21T00:57:15.341Z,-0.22
2018-03-21T00:59:42.818Z,-0.10
2018-03-21T01:02:11.251Z,-0.09
2018-03-21T01:04:38.738Z,-0.26
2018-03-21T01:07:06.196Z,-0.26
2018-03-21T01:09:33.677Z,-0.40
2018-03-21T01:12:01.143Z,-0.54
2018-03-21T01:14:28.617Z,-0.04
2018-03-21T01:16:56.077Z,-0.05
2018-03-21T01:19:23.549Z,-0.14
2018-03-21T01:21:50.999Z,-0.39
2018-03-21T01:24:18.485Z,-0.40
2018-03-21T01:26:46.467Z,-0.34
2018-03-21T01:29:13.997Z,-0.32
2018-03-21T01:31:42.476Z,-0.45
2018-03-21T01:34:09.928Z,-0.17
2018-03-21T01:36:37.394Z,0.22
2018-03-21T01:39:04.849Z,-0.20
2018-03-21T01:41:32.322Z,-0.17
2018-03-21T01:43:59.820Z,-0.20
2018-03-21T01:46:27.273Z,-0.12
2018-03-21T01:48:54.744Z,-0.07
2018-03-21T01:51:22.193Z,0.04
2018-03-21T01:53:49.669Z,-0.20
2018-03-21T01:56:17.980Z,-0.24
2018-03-21T01:58:45.467Z,-0.09
2018-03-21T02:01:12.930Z,-0.05
2018-03-21T02:03:40.407Z,-0.16
2018-03-21T02:06:07.896Z,-0.12
2018-03-21T02:08:35.352Z,-0.18
2018-03-21T02:11:02.809Z,-0.12
2018-03-21T02:13:30.267Z,-0.21
2018-03-21T02:15:57.734Z,-0.18
2018-03-21T02:18:25.192Z,-0.05
2018-03-21T02:20:52.658Z,-0.20
2018-03-21T02:23:20.115Z,-0.36
2018-03-21T02:25:47.585Z,0.05
2018-03-21T02:28:15.034Z,-0.23
2018-03-21T02:30:42.506Z,-0.23
2018-03-21T02:33:09.972Z,-0.19
2018-03-21T02:35:37.438Z,-0.40
2018-03-21T02:38:04.889Z,-0.53
2018-03-21T02:40:32.365Z,-0.49
2018-03-21T02:42:59.828Z,-0.50
2018-03-21T02:45:27.300Z,-0.90
2018-03-21T02:47:54.750Z,-0.51
2018-03-21T02:50:22.217Z,-0.74
2018-03-21T02:52:49.674Z,-0.66
2018-03-21T02:55:17.143Z,-0.79
2018-03-21T02:57:44.600Z,-0.75
2018-03-21T03:00:12.071Z,-0.39
2018-03-21T03:02:39.517Z,-0.78
2018-03-21T03:05:06.982Z,-0.85
2018-03-21T03:07:34.437Z,-0.94
2018-03-21T03:10:01.896Z,-0.75
2018-03-21T03:12:29.349Z,-0.71
2018-03-21T03:14:56.814Z,-0.99
2018-03-21T03:17:24.264Z,-1.20
2018-03-21T03:19:52.205Z,-1.27
2018-03-21T03:22:19.690Z,-1.18
2018-03-21T03:24:47.149Z,-1.23
2018-03-21T03:27:15.602Z,-1.01
2018-03-21T03:29:43.078Z,-1.13
2018-03-21T03:32:10.545Z,-1.15
2018-03-21T03:34:38.024Z,-1.25
2018-03-21T03:37:05.498Z,-1.23
2018-03-21T03:39:32.961Z,-1.34
2018-03-21T03:42:00.425Z,-1.37
2018-03-21T03:44:27.897Z,-1.28
2018-03-21T03:46:55.357Z,-1.19
2018-03-21T03:49:22.849Z,-1.37
2018-03-21T03:51:50.324Z,-1.32
2018-03-21T03:54:17.804Z,-1.36
2018-03-21T03:56:45.266Z,-1.38
2018-03-21T03:59:12.745Z,-1.43
2018-03-21T04:01:40.206Z,-1.15
2018-03-21T04:04:07.669Z,-0.87
2018-03-21T04:06:35.118Z,-0.90
2018-03-21T04:09:02.598Z,-1.01
2018-03-21T04:11:30.044Z,-1.05
2018-03-21T04:13:57.512Z,-1.08
2018-03-21T04:16:25.872Z,-1.37
2018-03-21T04:18:53.348Z,-1.43
2018-03-21T04:21:20.797Z,-1.02
2018-03-21T04:23:48.263Z,-1.30
2018-03-21T04:26:15.723Z,-1.22
2018-03-21T04:28:43.193Z,-1.23
2018-03-21T04:31:10.684Z,-1.29
2018-03-21T04:33:38.164Z,-1.31
2018-03-21T04:36:05.618Z,-1.30
2018-03-21T04:38:33.093Z,-1.31
2018-03-21T04:41:00.548Z,-1.27
2018-03-21T04:43:28.044Z,-1.09
2018-03-21T04:45:55.498Z,-1.15
2018-03-21T04:48:22.974Z,-1.13
2018-03-21T04:50:50.440Z,-1.05
2018-03-21T04:53:17.917Z,-1.05
2018-03-21T04:55:45.370Z,-0.74
2018-03-21T04:58:12.846Z,-0.85
2018-03-21T05:00:40.302Z,-0.97
2018-03-21T05:03:08.773Z,-1.14
2018-03-21T05:05:36.236Z,-1.23
2018-03-21T05:08:03.724Z,-1.08
2018-03-21T05:10:31.177Z,-0.88
2018-03-21T05:12:59.556Z,-0.85
2018-03-21T05:15:27.009Z,-0.87
2018-03-21T05:17:54.489Z,-0.95
2018-03-21T05:20:21.962Z,-0.81
2018-03-21T05:22:49.413Z,-0.77
2018-03-21T05:25:16.884Z,-0.78
2018-03-21T05:27:44.348Z,-0.79
2018-03-21T05:30:11.825Z,-0.75
2018-03-21T05:32:39.279Z,-0.74
2018-03-21T05:35:06.749Z,-0.44
2018-03-21T05:37:34.217Z,-0.56
2018-03-21T05:40:03.706Z,-0.57
2018-03-21T05:42:31.163Z,-0.57
2018-03-21T05:44:58.638Z,-0.38
2018-03-21T05:47:26.086Z,-0.57
2018-03-21T05:49:53.569Z,-0.45
2018-03-21T05:52:21.018Z,-0.67
2018-03-21T05:54:48.485Z,-0.62
2018-03-21T05:57:15.944Z,-0.59
2018-03-21T05:59:43.414Z,-0.68
2018-03-21T06:02:10.878Z,-0.47
2018-03-21T06:04:38.341Z,-0.36
2018-03-21T06:07:07.778Z,-0.39
2018-03-21T06:09:35.255Z,-0.45
2018-03-21T06:12:02.734Z,-0.12
2018-03-21T06:14:30.209Z,-0.03
2018-03-21T06:16:57.662Z,-0.21
2018-03-21T06:19:27.107Z,-0.08
2018-03-21T06:21:54.591Z,0.05
2018-03-21T06:24:23.054Z,0.06
2018-03-21T06:26:50.512Z,0.18
2018-03-21T06:29:18.003Z,0.29
2018-03-21T06:31:45.481Z,0.30
2018-03-21T06:34:12.942Z,0.76
2018-03-21T06:36:40.405Z,0.93
2018-03-21T06:39:07.871Z,1.24
2018-03-21T06:41:35.322Z,1.36
2018-03-21T06:44:02.794Z,1.43
2018-03-21T06:46:30.300Z,1.54
2018-03-21T06:48:57.749Z,1.75
2018-03-21T06:51:25.221Z,1.71
2018-03-21T06:53:52.693Z,1.65
2018-03-21T06:56:20.172Z,1.59
2018-03-21T06:58:47.654Z,1.64
2018-03-21T07:01:15.109Z,1.52
2018-03-21T07:03:42.565Z,1.49
2018-03-21T07:06:10.008Z,1.75
2018-03-21T07:08:37.582Z,2.05
2018-03-21T07:11:05.024Z,1.91
2018-03-21T07:13:44.402Z,1.49
2018-03-21T07:16:23.701Z,1.40
2018-03-21T07:18:51.168Z,1.10
2018-03-21T07:21:18.618Z,1.22
2018-03-21T07:23:46.096Z,0.95
2018-03-21T07:26:13.550Z,1.46
2018-03-21T07:28:41.989Z,1.62
2018-03-21T07:31:09.518Z,1.79
2018-03-21T07:33:36.938Z,1.79
2018-03-21T07:36:05.369Z,2.28
2018-03-21T07:38:32.826Z,2.30
2018-03-21T07:41:00.278Z,2.19
2018-03-21T07:43:27.736Z,2.80
2018-03-21T07:45:55.189Z,2.72
2018-03-21T07:48:22.657Z,2.63
2018-03-21T07:50:50.104Z,3.11
2018-03-21T07:53:17.574Z,3.08
2018-03-21T07:55:45.034Z,3.02
2018-03-21T07:58:13.421Z,3.16
2018-03-21T08:00:40.865Z,3.02
2018-03-21T08:03:09.266Z,3.36
2018-03-21T08:05:36.780Z,2.84
2018-03-21T08:08:05.181Z,3.28
2018-03-21T08:10:32.660Z,3.28
2018-03-21T08:13:00.100Z,3.45
2018-03-21T08:15:27.561Z,3.31
2018-03-21T08:17:55.006Z,2.93
2018-03-21T08:20:22.507Z,3.33
2018-03-21T08:22:49.965Z,3.37
2018-03-21T08:25:17.419Z,3.38
2018-03-21T08:27:44.865Z,3.28
2018-03-21T08:30:12.332Z,3.60
2018-03-21T08:32:39.789Z,3.37
2018-03-21T08:35:07.260Z,3.57
2018-03-21T08:37:34.718Z,3.92
2018-03-21T08:40:03.157Z,4.08
2018-03-21T08:42:30.602Z,4.02
2018-03-21T08:44:58.092Z,3.88
2018-03-21T08:47:26.598Z,4.06
2018-03-21T08:49:54.126Z,3.90
2018-03-21T08:52:21.569Z,3.69
2018-03-21T08:54:50.962Z,3.57
2018-03-21T08:57:18.412Z,3.51
2018-03-21T08:59:45.876Z,3.52
2018-03-21T09:02:13.322Z,3.47
2018-03-21T09:04:40.813Z,3.67
2018-03-21T09:07:09.471Z,3.62
2018-03-21T09:09:36.957Z,3.53
2018-03-21T09:12:04.386Z,3.64
2018-03-21T09:14:31.859Z,3.54
2018-03-21T09:16:59.291Z,3.97
2018-03-21T09:19:26.735Z,4.22
2018-03-21T09:21:54.241Z,4.30
2018-03-21T09:24:21.711Z,4.49
2018-03-21T09:26:50.149Z,4.45
2018-03-21T09:29:17.612Z,4.39
2018-03-21T09:31:46.077Z,4.64
2018-03-21T09:34:13.544Z,4.89
2018-03-21T09:36:41.003Z,4.73
2018-03-21T09:39:08.530Z,4.69
2018-03-21T09:41:35.941Z,5.07
2018-03-21T09:44:04.415Z,5.00
2018-03-21T09:46:31.877Z,4.16
2018-03-21T09:48:59.345Z,4.60
2018-03-21T09:51:26.802Z,4.53
2018-03-21T09:53:54.270Z,4.51
2018-03-21T09:56:21.721Z,4.94
2018-03-21T09:58:49.260Z,5.10
2018-03-21T10:01:16.710Z,5.14
2018-03-21T10:03:45.197Z,5.15
2018-03-21T10:06:13.663Z,5.64
2018-03-21T10:08:41.162Z,4.96
2018-03-21T10:11:09.591Z,4.55
2018-03-21T10:13:37.072Z,4.52
2018-03-21T10:16:05.537Z,4.75
2018-03-21T10:18:32.996Z,5.08
2018-03-21T10:21:00.468Z,4.72
2018-03-21T10:23:27.932Z,4.47
2018-03-21T10:25:55.388Z,4.49
2018-03-21T10:28:23.769Z,4.74
2018-03-21T10:30:51.223Z,4.73
2018-03-21T10:33:18.694Z,5.11
2018-03-21T10:35:46.149Z,4.88
2018-03-21T10:38:13.625Z,4.90
2018-03-21T10:40:41.074Z,4.90
2018-03-21T10:43:08.546Z,4.84
2018-03-21T10:45:36.003Z,4.87
2018-03-21T10:48:03.478Z,5.13
2018-03-21T10:50:30.937Z,5.50
2018-03-21T10:52:59.342Z,5.33
2018-03-21T10:55:26.794Z,5.58
2018-03-21T10:57:54.253Z,5.98
2018-03-21T11:00:21.700Z,5.67
2018-03-21T11:02:54.901Z,5.39
2018-03-21T11:05:22.363Z,5.59
2018-03-21T11:07:49.843Z,5.55
2018-03-21T11:10:17.388Z,5.63
2018-03-21T11:12:44.838Z,6.15
2018-03-21T11:15:12.311Z,5.95
2018-03-21T11:17:39.780Z,5.85
2018-03-21T11:20:07.242Z,6.04
2018-03-21T11:22:34.713Z,6.09
2018-03-21T11:25:02.168Z,6.06
2018-03-21T11:27:29.625Z,5.86
2018-03-21T11:29:57.094Z,6.60
2018-03-21T11:32:25.484Z,6.53
2018-03-21T11:34:52.950Z,6.36
2018-03-21T11:37:20.414Z,6.11
2018-03-21T11:39:47.890Z,6.19
2018-03-21T11:42:15.343Z,6.44
2018-03-21T11:44:42.805Z,6.45
2018-03-21T11:47:10.252Z,6.75
2018-03-21T11:49:37.713Z,6.66
2018-03-21T11:52:05.188Z,6.44
2018-03-21T11:54:32.662Z,6.66
2018-03-21T11:57:00.109Z,6.23
2018-03-21T11:59:28.552Z,6.08
2018-03-21T12:01:56.026Z,5.95
2018-03-21T12:04:23.488Z,5.90
2018-03-21T12:06:50.943Z,5.90
2018-03-21T12:09:19.417Z,6.12
2018-03-21T12:11:46.863Z,5.85
2018-03-21T12:14:15.233Z,5.67
2018-03-21T12:16:42.679Z,5.87
2018-03-21T12:19:10.146Z,5.99
2018-03-21T12:21:37.627Z,5.99
2018-03-21T12:24:05.094Z,5.97
2018-03-21T12:26:32.547Z,5.64
2018-03-21T12:29:00.009Z,5.68
2018-03-21T12:31:27.469Z,6.21
2018-03-21T12:33:56.971Z,6.56
2018-03-21T12:36:24.422Z,6.81
2018-03-21T12:38:51.889Z,7.05
2018-03-21T12:41:19.511Z,6.41
2018-03-21T12:43:46.980Z,6.73
2018-03-21T12:46:15.437Z,6.85
2018-03-21T12:48:42.927Z,6.33
2018-03-21T12:51:10.383Z,6.81
2018-03-21T12:53:37.857Z,7.01
2018-03-21T12:56:05.382Z,7.48
2018-03-21T12:58:32.822Z,7.44
2018-03-21T13:01:00.328Z,7.41
2018-03-21T13:03:27.792Z,7.37
2018-03-21T13:05:55.255Z,8.20
2018-03-21T13:08:22.780Z,7.93
2018-03-21T13:10:50.228Z,7.13
2018-03-21T13:13:18.721Z,6.82
2018-03-21T13:15:46.164Z,6.95
2018-03-21T13:18:13.614Z,6.64
2018-03-21T13:20:41.065Z,6.68
2018-03-21T13:23:08.531Z,6.89
2018-03-21T13:25:35.978Z,6.95
2018-03-21T13:28:04.340Z,6.51
2018-03-21T13:30:31.797Z,6.78
2018-03-21T13:32:59.256Z,7.02
2018-03-21T13:35:26.723Z,7.32
2018-03-21T13:37:54.189Z,7.95
2018-03-21T13:40:21.642Z,7.43
2018-03-21T13:42:49.105Z,6.91
2018-03-21T13:45:16.557Z,6.47
2018-03-21T13:47:44.030Z,6.42
2018-03-21T13:50:12.498Z,6.51
2018-03-21T13:52:39.976Z,6.67
2018-03-21T13:55:07.640Z,7.08
2018-03-21T13:57:36.014Z,7.32
2018-03-21T14:00:03.475Z,6.95
2018-03-21T14:02:30.933Z,6.69
2018-03-21T14:04:58.381Z,6.61
2018-03-21T14:07:25.833Z,6.56
2018-03-21T14:09:54.197Z,6.55
2018-03-21T14:12:22.601Z,6.39
2018-03-21T14:14:50.059Z,6.43
2018-03-21T14:17:18.413Z,6.23
2018-03-21T14:19:45.901Z,6.48
2018-03-21T14:22:13.430Z,6.60
2018-03-21T14:24:41.815Z,6.40
2018-03-21T14:27:09.271Z,6.50
2018-03-21T14:29:36.733Z,6.51
2018-03-21T14:32:04.173Z,6.54
2018-03-21T14:34:31.635Z,6.44
2018-03-21T14:37:00.039Z,6.53
2018-03-21T14:39:27.521Z,6.48
2018-03-21T14:41:55.949Z,6.26
2018-03-21T14:44:23.434Z,6.21
2018-03-21T14:46:50.980Z,6.23
2018-03-21T14:49:19.461Z,6.24
2018-03-21T14:51:48.852Z,6.43
2018-03-21T14:54:16.321Z,6.92
2018-03-21T14:56:44.777Z,7.92
2018-03-21T14:59:12.224Z,8.47
2018-03-21T15:01:39.689Z,8.01
2018-03-21T15:04:07.153Z,7.41
2018-03-21T15:06:34.619Z,6.95
2018-03-21T15:09:02.102Z,6.82
2018-03-21T15:11:29.559Z,6.99
2018-03-21T15:13:57.033Z,6.96
2018-03-21T15:16:24.501Z,6.71
2018-03-21T15:18:51.982Z,6.50
2018-03-21T15:21:19.450Z,6.50
2018-03-21T15:23:46.918Z,6.32
2018-03-21T15:26:14.426Z,6.20
2018-03-21T15:28:42.873Z,6.29
2018-03-21T15:31:10.321Z,6.09
2018-03-21T15:33:37.856Z,6.06
2018-03-21T15:36:06.285Z,6.08
2018-03-21T15:38:33.769Z,5.96
2018-03-21T15:41:01.236Z,6.03
2018-03-21T15:43:28.726Z,6.00
2018-03-21T15:45:56.201Z,5.94
2018-03-21T15:48:23.679Z,5.91
2018-03-21T15:50:51.224Z,5.77
2018-03-21T15:53:18.712Z,5.72
2018-03-21T15:55:46.186Z,5.75
2018-03-21T15:58:13.674Z,5.54
2018-03-21T16:00:41.171Z,5.60
2018-03-21T16:03:08.695Z,5.41
2018-03-21T16:05:37.124Z,5.45
2018-03-21T16:08:04.593Z,5.32
2018-03-21T16:10:32.041Z,5.36
2018-03-21T16:12:59.501Z,5.23
2018-03-21T16:15:26.970Z,5.35
2018-03-21T16:17:54.494Z,5.38
2018-03-21T16:20:21.984Z,5.25
2018-03-21T16:22:49.499Z,5.23
2018-03-21T16:25:17.853Z,5.12
2018-03-21T16:27:45.371Z,5.06
2018-03-21T16:30:12.844Z,5.17
2018-03-21T16:32:40.365Z,5.08
2018-03-21T16:35:07.838Z,5.03
2018-03-21T16:37:35.290Z,5.10
2018-03-21T16:40:02.765Z,5.11
2018-03-21T16:42:30.219Z,5.07
2018-03-21T16:44:57.697Z,4.92
2018-03-21T16:47:25.149Z,4.90
2018-03-21T16:49:53.409Z,4.82
2018-03-21T16:52:20.913Z,4.89
2018-03-21T16:54:48.405Z,4.87
2018-03-21T16:57:15.866Z,4.92
2018-03-21T16:59:43.344Z,4.85
2018-03-21T17:02:10.793Z,4.71
2018-03-21T17:04:38.260Z,4.73
2018-03-21T17:07:05.724Z,4.70
2018-03-21T17:09:33.194Z,4.63
2018-03-21T17:12:00.645Z,4.73
2018-03-21T17:14:28.157Z,4.63
2018-03-21T17:16:55.596Z,4.67
2018-03-21T17:19:23.051Z,4.64
2018-03-21T17:21:50.493Z,4.65
2018-03-21T17:24:17.952Z,4.72
2018-03-21T17:26:45.397Z,4.65
2018-03-21T17:29:12.845Z,4.56
2018-03-21T17:31:40.301Z,4.50
2018-03-21T17:34:07.748Z,4.43
2018-03-21T17:36:35.208Z,4.49
2018-03-21T17:39:02.652Z,4.33
2018-03-21T17:41:30.120Z,4.29
2018-03-21T17:43:58.478Z,4.24
2018-03-21T17:46:25.946Z,4.15
2018-03-21T17:48:54.396Z,4.09
2018-03-21T17:51:21.854Z,4.17
2018-03-21T17:53:49.309Z,4.15
2018-03-21T17:56:16.785Z,4.02
2018-03-21T17:58:44.268Z,4.06
2018-03-21T18:01:11.738Z,3.98
2018-03-21T18:03:39.189Z,3.94
2018-03-21T18:06:06.703Z,3.86
2018-03-21T18:08:34.177Z,3.92
2018-03-21T18:11:01.645Z,3.99
2018-03-21T18:13:29.102Z,3.90
2018-03-21T18:15:56.609Z,4.04
2018-03-21T18:18:24.071Z,3.97
2018-03-21T18:20:51.549Z,3.95
2018-03-21T18:23:19.023Z,3.91
2018-03-21T18:25:46.482Z,3.92
2018-03-21T18:28:13.937Z,3.99
2018-03-21T18:30:42.316Z,4.00
2018-03-21T18:33:09.785Z,4.13
2018-03-21T18:35:37.258Z,4.11
2018-03-21T18:38:04.706Z,4.08
2018-03-21T18:40:33.110Z,4.02
2018-03-21T18:43:02.484Z,4.05
2018-03-21T18:45:29.963Z,3.99
2018-03-21T18:47:57.413Z,3.96
2018-03-21T18:50:24.877Z,4.02
2018-03-21T18:52:52.322Z,4.02
2018-03-21T18:55:19.786Z,3.85
2018-03-21T18:57:47.232Z,3.95
2018-03-21T19:00:14.693Z,3.93
2018-03-21T19:02:42.150Z,3.90
2018-03-21T19:05:09.621Z,3.83
2018-03-21T19:07:37.074Z,3.96
2018-03-21T19:10:04.538Z,3.85
2018-03-21T19:12:32.013Z,3.77
2018-03-21T19:14:59.473Z,3.72
2018-03-21T19:17:26.949Z,3.72
2018-03-21T19:19:54.593Z,3.74
2018-03-21T19:22:22.044Z,3.77
2018-03-21T19:24:49.513Z,3.78
2018-03-21T19:27:16.961Z,3.74
2018-03-21T19:29:44.425Z,3.82
2018-03-21T19:32:11.880Z,3.69
2018-03-21T19:34:39.345Z,3.70
2018-03-21T19:37:06.826Z,3.61
2018-03-21T19:39:34.328Z,3.53
2018-03-21T19:42:01.780Z,3.57
2018-03-21T19:44:29.258Z,3.46
2018-03-21T19:46:56.712Z,3.47
2018-03-21T19:49:24.190Z,3.38
2018-03-21T19:51:51.636Z,3.28
2018-03-21T19:54:19.109Z,3.31
2018-03-21T19:56:46.575Z,3.30
2018-03-21T19:59:14.115Z,3.33
2018-03-21T20:01:41.578Z,3.21
2018-03-21T20:04:09.053Z,3.25
2018-03-21T20:06:36.576Z,3.25
2018-03-21T20:09:05.045Z,3.21
2018-03-21T20:11:32.501Z,3.17
2018-03-21T20:13:59.971Z,3.25
2018-03-21T20:16:27.428Z,3.24
2018-03-21T20:18:54.895Z,3.30
2018-03-21T20:21:22.353Z,3.14
2018-03-21T20:23:49.821Z,3.22
2018-03-21T20:26:17.292Z,3.15
2018-03-21T20:28:44.798Z,3.08
2018-03-21T20:31:12.303Z,3.01
2018-03-21T20:33:39.783Z,3.03
2018-03-21T20:36:07.252Z,3.04
2018-03-21T20:38:34.741Z,3.15
2018-03-21T20:41:02.222Z,3.14
2018-03-21T20:43:29.673Z,3.14
2018-03-21T20:45:58.129Z,3.15
2018-03-21T20:48:26.597Z,3.10
2018-03-21T20:50:54.081Z,3.11
2018-03-21T20:53:22.529Z,3.12
2018-03-21T20:55:49.993Z,3.11
2018-03-21T20:58:17.446Z,3.10
2018-03-21T21:00:44.917Z,3.13
2018-03-21T21:03:12.370Z,3.16
2018-03-21T21:05:39.848Z,3.05
2018-03-21T21:08:07.313Z,3.04
2018-03-21T21:10:34.791Z,3.02
2018-03-21T21:13:02.237Z,3.05
2018-03-21T21:15:29.713Z,3.05
2018-03-21T21:17:57.152Z,3.03
2018-03-21T21:20:24.631Z,3.00
2018-03-21T21:22:53.045Z,2.99
2018-03-21T21:25:20.558Z,3.01
2018-03-21T21:27:48.005Z,3.07
2018-03-21T21:30:16.839Z,3.08
2018-03-21T21:32:44.350Z,3.15
2018-03-21T21:35:11.883Z,3.16
2018-03-21T21:37:39.334Z,3.06
2018-03-21T21:40:06.797Z,3.07
2018-03-21T21:42:34.273Z,3.09
2018-03-21T21:45:01.733Z,3.17
2018-03-21T21:47:29.193Z,3.17
2018-03-21T21:49:56.638Z,3.15
2018-03-21T21:52:24.101Z,3.10
2018-03-21T21:54:51.551Z,3.14
2018-03-21T21:57:19.038Z,3.12
2018-03-21T21:59:46.497Z,3.19
2018-03-21T22:02:13.941Z,3.11
2018-03-21T22:04:41.459Z,3.13
2018-03-21T22:07:08.953Z,2.99
2018-03-21T22:09:36.415Z,3.05
2018-03-21T22:12:03.958Z,3.11
2018-03-21T22:14:31.424Z,2.99
2018-03-21T22:16:58.856Z,3.03
2018-03-21T22:19:26.352Z,3.04
2018-03-21T22:21:53.813Z,3.02
2018-03-21T22:24:21.291Z,3.06
2018-03-21T22:26:48.756Z,2.95
2018-03-21T22:29:16.236Z,3.03
2018-03-21T22:31:43.705Z,2.98
2018-03-21T22:34:11.161Z,2.96
2018-03-21T22:36:38.605Z,3.08
2018-03-21T22:39:06.080Z,3.15
2018-03-21T22:41:33.561Z,3.08
2018-03-21T22:44:01.043Z,3.13
2018-03-21T22:46:28.498Z,3.04
2018-03-21T22:48:56.871Z,3.07
2018-03-21T22:51:24.368Z,3.02
2018-03-21T22:53:51.829Z,3.03
2018-03-21T22:56:19.293Z,3.09
2018-03-21T22:58:46.769Z,3.11
2018-03-21T23:01:14.285Z,3.04
2018-03-21T23:03:41.745Z,3.16
2018-03-21T23:06:09.189Z,3.08
2018-03-21T23:08:36.666Z,3.12
2018-03-21T23:11:04.179Z,3.13
2018-03-21T23:13:31.653Z,3.15
2018-03-21T23:16:00.026Z,3.10
2018-03-21T23:18:27.513Z,3.17
2018-03-21T23:20:54.963Z,3.14
2018-03-21T23:23:22.424Z,3.12
2018-03-21T23:25:49.882Z,3.13
2018-03-21T23:28:17.378Z,3.10
2018-03-21T23:30:44.829Z,3.08
2018-03-21T23:33:12.304Z,3.16
2018-03-21T23:35:39.750Z,3.18
2018-03-21T23:38:07.219Z,3.20
2018-03-21T23:40:34.696Z,3.11
2018-03-21T23:43:02.177Z,3.06
2018-03-21T23:45:29.630Z,3.13
2018-03-21T23:47:57.107Z,3.11
2018-03-21T23:50:24.565Z,3.09
2018-03-21T23:52:52.042Z,3.14
2018-03-21T23:55:19.505Z,3.13
2018-03-21T23:57:47.066Z,3.19
